sensor_id;sensor_type;location;lat;lon;timestamp;P1;durP1;ratioP1;P2;durP2;ratioP2
37905;SDS011;23739;51.448;6.674;2022-09-17T00:01:07;10.05;;;1.60;;
37905;SDS011;23739;51.448;6.674;2022-09-17T00:03:33;7.35;;;1.48;;
37905;SDS011;23739;51.448;6.674;2022-09-17T00:08:26;5.32;;;1.73;;
37905;SDS011;23739;51.448;6.674;2022-09-17T00:10:52;7.97;;;1.80;;
37905;SDS011;23739;51.448;6.674;2022-09-17T00:13:18;10.25;;;1.85;;
37905;SDS011;23739;51.448;6.674;2022-09-17T00:15:45;5.93;;;2.22;;
37905;SDS011;23739;51.448;6.674;2022-09-17T00:18:12;4.43;;;1.40;;
37905;SDS011;23739;51.448;6.674;2022-09-17T00:20:39;7.95;;;1.52;;
37905;SDS011;23739;51.448;6.674;2022-09-17T00:23:05;6.65;;;1.80;;
37905;SDS011;23739;51.448;6.674;2022-09-17T00:25:32;8.10;;;2.88;;
37905;SDS011;23739;51.448;6.674;2022-09-17T00:27:59;5.45;;;1.60;;
37905;SDS011;23739;51.448;6.674;2022-09-17T00:30:25;6.93;;;1.52;;
37905;SDS011;23739;51.448;6.674;2022-09-17T00:32:51;5.18;;;1.58;;
37905;SDS011;23739;51.448;6.674;2022-09-17T00:35:17;10.38;;;1.55;;
37905;SDS011;23739;51.448;6.674;2022-09-17T00:37:44;5.97;;;2.22;;
37905;SDS011;23739;51.448;6.674;2022-09-17T00:40:10;8.82;;;1.60;;
37905;SDS011;23739;51.448;6.674;2022-09-17T00:42:36;6.20;;;1.38;;
37905;SDS011;23739;51.448;6.674;2022-09-17T00:45:02;6.95;;;1.55;;
37905;SDS011;23739;51.448;6.674;2022-09-17T00:47:38;5.70;;;1.30;;
37905;SDS011;23739;51.448;6.674;2022-09-17T00:50:20;8.70;;;1.95;;
37905;SDS011;23739;51.448;6.674;2022-09-17T00:52:54;11.30;;;2.20;;
37905;SDS011;23739;51.448;6.674;2022-09-17T00:57:51;7.80;;;1.98;;
37905;SDS011;23739;51.448;6.674;2022-09-17T01:00:18;8.25;;;1.70;;
37905;SDS011;23739;51.448;6.674;2022-09-17T01:02:44;10.23;;;2.17;;
37905;SDS011;23739;51.448;6.674;2022-09-17T01:05:10;7.97;;;2.70;;
37905;SDS011;23739;51.448;6.674;2022-09-17T01:15:27;11.98;;;1.90;;
37905;SDS011;23739;51.448;6.674;2022-09-17T01:39:02;10.93;;;1.90;;
37905;SDS011;23739;51.448;6.674;2022-09-17T01:41:42;7.32;;;2.63;;
37905;SDS011;23739;51.448;6.674;2022-09-17T01:44:27;7.45;;;1.83;;
37905;SDS011;23739;51.448;6.674;2022-09-17T01:47:02;13.55;;;3.15;;
37905;SDS011;23739;51.448;6.674;2022-09-17T01:49:30;5.53;;;1.67;;
37905;SDS011;23739;51.448;6.674;2022-09-17T01:51:57;7.20;;;1.95;;
37905;SDS011;23739;51.448;6.674;2022-09-17T01:54:33;9.88;;;1.85;;
37905;SDS011;23739;51.448;6.674;2022-09-17T01:57:20;8.75;;;1.90;;
37905;SDS011;23739;51.448;6.674;2022-09-17T01:59:54;9.43;;;1.50;;
37905;SDS011;23739;51.448;6.674;2022-09-17T02:02:24;7.38;;;1.85;;
37905;SDS011;23739;51.448;6.674;2022-09-17T02:04:55;11.88;;;1.88;;
37905;SDS011;23739;51.448;6.674;2022-09-17T02:07:23;10.20;;;2.07;;
37905;SDS011;23739;51.448;6.674;2022-09-17T02:10:00;7.43;;;1.48;;
37905;SDS011;23739;51.448;6.674;2022-09-17T02:12:30;9.73;;;1.90;;
37905;SDS011;23739;51.448;6.674;2022-09-17T02:14:59;8.82;;;1.90;;
37905;SDS011;23739;51.448;6.674;2022-09-17T02:17:28;9.73;;;2.13;;
37905;SDS011;23739;51.448;6.674;2022-09-17T02:19:55;7.97;;;1.80;;
37905;SDS011;23739;51.448;6.674;2022-09-17T02:22:27;10.25;;;2.45;;
37905;SDS011;23739;51.448;6.674;2022-09-17T02:27:56;7.68;;;2.30;;
37905;SDS011;23739;51.448;6.674;2022-09-17T02:30:23;16.70;;;2.65;;
37905;SDS011;23739;51.448;6.674;2022-09-17T02:32:49;13.05;;;2.33;;
37905;SDS011;23739;51.448;6.674;2022-09-17T02:35:16;15.30;;;2.35;;
37905;SDS011;23739;51.448;6.674;2022-09-17T02:37:42;14.75;;;2.42;;
37905;SDS011;23739;51.448;6.674;2022-09-17T02:40:13;14.55;;;2.05;;
37905;SDS011;23739;51.448;6.674;2022-09-17T02:43:02;10.50;;;2.65;;
37905;SDS011;23739;51.448;6.674;2022-09-17T02:50:46;14.55;;;1.92;;
37905;SDS011;23739;51.448;6.674;2022-09-17T02:53:21;8.13;;;1.80;;
37905;SDS011;23739;51.448;6.674;2022-09-17T02:56:06;10.80;;;2.33;;
37905;SDS011;23739;51.448;6.674;2022-09-17T02:58:39;7.38;;;1.48;;
37905;SDS011;23739;51.448;6.674;2022-09-17T03:01:11;10.77;;;2.13;;
37905;SDS011;23739;51.448;6.674;2022-09-17T03:03:40;12.35;;;2.20;;
37905;SDS011;23739;51.448;6.674;2022-09-17T03:06:08;11.38;;;1.85;;
37905;SDS011;23739;51.448;6.674;2022-09-17T03:08:38;10.50;;;1.70;;
37905;SDS011;23739;51.448;6.674;2022-09-17T03:11:06;10.80;;;1.92;;
37905;SDS011;23739;51.448;6.674;2022-09-17T03:13:33;14.30;;;2.38;;
37905;SDS011;23739;51.448;6.674;2022-09-17T03:16:00;9.07;;;1.88;;
37905;SDS011;23739;51.448;6.674;2022-09-17T03:18:27;9.05;;;2.33;;
37905;SDS011;23739;51.448;6.674;2022-09-17T03:20:53;13.05;;;2.30;;
37905;SDS011;23739;51.448;6.674;2022-09-17T03:23:19;12.15;;;3.00;;
37905;SDS011;23739;51.448;6.674;2022-09-17T03:25:46;13.77;;;2.45;;
37905;SDS011;23739;51.448;6.674;2022-09-17T03:28:14;9.02;;;1.42;;
37905;SDS011;23739;51.448;6.674;2022-09-17T03:30:42;9.57;;;2.72;;
37905;SDS011;23739;51.448;6.674;2022-09-17T03:33:08;6.20;;;1.30;;
37905;SDS011;23739;51.448;6.674;2022-09-17T03:35:34;16.10;;;2.35;;
37905;SDS011;23739;51.448;6.674;2022-09-17T03:38:00;14.00;;;2.20;;
37905;SDS011;23739;51.448;6.674;2022-09-17T03:40:26;9.07;;;1.63;;
37905;SDS011;23739;51.448;6.674;2022-09-17T03:42:53;7.85;;;1.95;;
37905;SDS011;23739;51.448;6.674;2022-09-17T03:45:19;9.52;;;2.28;;
37905;SDS011;23739;51.448;6.674;2022-09-17T03:47:45;13.95;;;1.58;;
37905;SDS011;23739;51.448;6.674;2022-09-17T03:50:11;8.55;;;1.92;;
37905;SDS011;23739;51.448;6.674;2022-09-17T03:52:38;11.43;;;2.08;;
37905;SDS011;23739;51.448;6.674;2022-09-17T03:55:04;13.82;;;2.65;;
37905;SDS011;23739;51.448;6.674;2022-09-17T03:57:30;10.43;;;2.40;;
37905;SDS011;23739;51.448;6.674;2022-09-17T03:59:56;9.77;;;1.80;;
37905;SDS011;23739;51.448;6.674;2022-09-17T04:02:23;5.85;;;1.50;;
37905;SDS011;23739;51.448;6.674;2022-09-17T04:04:49;12.70;;;3.40;;
37905;SDS011;23739;51.448;6.674;2022-09-17T04:07:18;9.32;;;2.80;;
37905;SDS011;23739;51.448;6.674;2022-09-17T04:09:44;11.38;;;1.83;;
37905;SDS011;23739;51.448;6.674;2022-09-17T04:12:10;10.57;;;1.67;;
37905;SDS011;23739;51.448;6.674;2022-09-17T04:14:36;7.38;;;1.98;;
37905;SDS011;23739;51.448;6.674;2022-09-17T04:17:02;11.13;;;2.45;;
37905;SDS011;23739;51.448;6.674;2022-09-17T04:19:28;9.05;;;3.45;;
37905;SDS011;23739;51.448;6.674;2022-09-17T04:21:54;10.68;;;2.30;;
37905;SDS011;23739;51.448;6.674;2022-09-17T04:24:20;9.07;;;2.50;;
37905;SDS011;23739;51.448;6.674;2022-09-17T04:26:46;7.57;;;2.45;;
37905;SDS011;23739;51.448;6.674;2022-09-17T04:29:12;9.18;;;2.10;;
37905;SDS011;23739;51.448;6.674;2022-09-17T04:31:38;7.43;;;1.85;;
37905;SDS011;23739;51.448;6.674;2022-09-17T04:34:05;7.75;;;2.53;;
37905;SDS011;23739;51.448;6.674;2022-09-17T04:36:31;9.60;;;2.08;;
37905;SDS011;23739;51.448;6.674;2022-09-17T04:38:57;10.90;;;2.45;;
37905;SDS011;23739;51.448;6.674;2022-09-17T04:41:23;9.27;;;3.47;;
37905;SDS011;23739;51.448;6.674;2022-09-17T04:43:50;17.75;;;3.00;;
37905;SDS011;23739;51.448;6.674;2022-09-17T04:46:16;13.10;;;1.70;;
37905;SDS011;23739;51.448;6.674;2022-09-17T04:48:42;8.73;;;1.63;;
37905;SDS011;23739;51.448;6.674;2022-09-17T04:51:08;9.90;;;2.35;;
37905;SDS011;23739;51.448;6.674;2022-09-17T04:53:34;11.80;;;2.33;;
37905;SDS011;23739;51.448;6.674;2022-09-17T04:56:02;12.38;;;2.80;;
37905;SDS011;23739;51.448;6.674;2022-09-17T04:58:28;12.80;;;2.45;;
37905;SDS011;23739;51.448;6.674;2022-09-17T05:00:55;10.85;;;2.00;;
37905;SDS011;23739;51.448;6.674;2022-09-17T05:03:21;13.10;;;2.72;;
37905;SDS011;23739;51.448;6.674;2022-09-17T05:05:48;9.85;;;2.03;;
37905;SDS011;23739;51.448;6.674;2022-09-17T05:08:14;16.45;;;2.53;;
37905;SDS011;23739;51.448;6.674;2022-09-17T05:10:40;10.82;;;3.22;;
37905;SDS011;23739;51.448;6.674;2022-09-17T05:13:06;8.55;;;2.47;;
37905;SDS011;23739;51.448;6.674;2022-09-17T05:15:32;6.20;;;2.00;;
37905;SDS011;23739;51.448;6.674;2022-09-17T05:17:58;6.88;;;1.40;;
37905;SDS011;23739;51.448;6.674;2022-09-17T05:20:24;11.63;;;2.58;;
37905;SDS011;23739;51.448;6.674;2022-09-17T05:22:51;5.88;;;1.23;;
37905;SDS011;23739;51.448;6.674;2022-09-17T05:25:18;9.18;;;2.03;;
37905;SDS011;23739;51.448;6.674;2022-09-17T05:27:45;7.60;;;1.38;;
37905;SDS011;23739;51.448;6.674;2022-09-17T05:30:11;5.75;;;1.50;;
37905;SDS011;23739;51.448;6.674;2022-09-17T05:32:37;6.35;;;1.42;;
37905;SDS011;23739;51.448;6.674;2022-09-17T05:35:04;8.30;;;2.03;;
37905;SDS011;23739;51.448;6.674;2022-09-17T05:37:31;11.38;;;2.05;;
37905;SDS011;23739;51.448;6.674;2022-09-17T05:39:58;9.15;;;1.65;;
37905;SDS011;23739;51.448;6.674;2022-09-17T05:42:24;9.73;;;1.83;;
37905;SDS011;23739;51.448;6.674;2022-09-17T05:44:50;13.93;;;1.92;;
37905;SDS011;23739;51.448;6.674;2022-09-17T05:47:16;12.90;;;2.05;;
37905;SDS011;23739;51.448;6.674;2022-09-17T05:49:42;10.93;;;2.55;;
37905;SDS011;23739;51.448;6.674;2022-09-17T05:52:08;5.22;;;1.80;;
37905;SDS011;23739;51.448;6.674;2022-09-17T05:54:34;8.90;;;1.75;;
37905;SDS011;23739;51.448;6.674;2022-09-17T05:57:00;7.53;;;2.00;;
37905;SDS011;23739;51.448;6.674;2022-09-17T05:59:27;8.25;;;2.58;;
37905;SDS011;23739;51.448;6.674;2022-09-17T06:01:53;11.40;;;1.35;;
37905;SDS011;23739;51.448;6.674;2022-09-17T06:04:19;6.55;;;1.27;;
37905;SDS011;23739;51.448;6.674;2022-09-17T06:06:45;10.55;;;2.83;;
37905;SDS011;23739;51.448;6.674;2022-09-17T06:09:11;8.38;;;1.63;;
37905;SDS011;23739;51.448;6.674;2022-09-17T06:11:37;11.85;;;1.50;;
37905;SDS011;23739;51.448;6.674;2022-09-17T06:14:04;8.43;;;1.38;;
37905;SDS011;23739;51.448;6.674;2022-09-17T06:16:30;10.15;;;3.45;;
37905;SDS011;23739;51.448;6.674;2022-09-17T06:18:56;11.27;;;2.03;;
37905;SDS011;23739;51.448;6.674;2022-09-17T06:21:22;8.40;;;2.45;;
37905;SDS011;23739;51.448;6.674;2022-09-17T06:23:49;12.90;;;2.97;;
37905;SDS011;23739;51.448;6.674;2022-09-17T06:26:15;10.90;;;1.83;;
37905;SDS011;23739;51.448;6.674;2022-09-17T06:28:42;16.65;;;1.80;;
37905;SDS011;23739;51.448;6.674;2022-09-17T06:31:09;10.55;;;2.58;;
37905;SDS011;23739;51.448;6.674;2022-09-17T06:33:35;7.75;;;1.27;;
37905;SDS011;23739;51.448;6.674;2022-09-17T06:36:03;10.25;;;1.73;;
37905;SDS011;23739;51.448;6.674;2022-09-17T06:38:30;7.72;;;3.20;;
37905;SDS011;23739;51.448;6.674;2022-09-17T06:40:57;14.75;;;3.55;;
37905;SDS011;23739;51.448;6.674;2022-09-17T06:43:23;7.75;;;1.58;;
37905;SDS011;23739;51.448;6.674;2022-09-17T06:45:56;8.70;;;1.58;;
37905;SDS011;23739;51.448;6.674;2022-09-17T06:48:22;10.43;;;1.83;;
37905;SDS011;23739;51.448;6.674;2022-09-17T06:50:49;8.55;;;1.73;;
37905;SDS011;23739;51.448;6.674;2022-09-17T06:53:18;9.80;;;3.17;;
37905;SDS011;23739;51.448;6.674;2022-09-17T06:55:44;15.20;;;4.28;;
37905;SDS011;23739;51.448;6.674;2022-09-17T06:58:10;10.85;;;3.60;;
37905;SDS011;23739;51.448;6.674;2022-09-17T07:00:36;6.07;;;2.15;;
37905;SDS011;23739;51.448;6.674;2022-09-17T07:03:03;13.98;;;4.15;;
37905;SDS011;23739;51.448;6.674;2022-09-17T07:05:29;16.77;;;4.57;;
37905;SDS011;23739;51.448;6.674;2022-09-17T07:07:59;10.27;;;2.50;;
37905;SDS011;23739;51.448;6.674;2022-09-17T07:10:27;15.35;;;5.63;;
37905;SDS011;23739;51.448;6.674;2022-09-17T07:12:53;9.65;;;2.03;;
37905;SDS011;23739;51.448;6.674;2022-09-17T07:15:19;5.15;;;1.45;;
37905;SDS011;23739;51.448;6.674;2022-09-17T07:17:45;7.53;;;1.60;;
37905;SDS011;23739;51.448;6.674;2022-09-17T07:20:12;7.15;;;1.58;;
37905;SDS011;23739;51.448;6.674;2022-09-17T07:22:38;11.38;;;1.60;;
37905;SDS011;23739;51.448;6.674;2022-09-17T07:25:05;6.63;;;1.05;;
37905;SDS011;23739;51.448;6.674;2022-09-17T07:27:32;4.40;;;1.38;;
37905;SDS011;23739;51.448;6.674;2022-09-17T07:29:58;10.88;;;1.48;;
37905;SDS011;23739;51.448;6.674;2022-09-17T07:32:24;6.82;;;1.42;;
37905;SDS011;23739;51.448;6.674;2022-09-17T07:34:50;9.07;;;2.70;;
37905;SDS011;23739;51.448;6.674;2022-09-17T07:37:17;12.55;;;1.80;;
37905;SDS011;23739;51.448;6.674;2022-09-17T07:39:43;11.77;;;1.70;;
37905;SDS011;23739;51.448;6.674;2022-09-17T07:42:10;7.65;;;1.35;;
37905;SDS011;23739;51.448;6.674;2022-09-17T07:44:36;5.15;;;1.02;;
37905;SDS011;23739;51.448;6.674;2022-09-17T07:47:02;5.25;;;1.45;;
37905;SDS011;23739;51.448;6.674;2022-09-17T07:49:29;5.72;;;0.77;;
37905;SDS011;23739;51.448;6.674;2022-09-17T07:51:55;7.15;;;1.00;;
37905;SDS011;23739;51.448;6.674;2022-09-17T07:54:21;9.23;;;1.38;;
37905;SDS011;23739;51.448;6.674;2022-09-17T07:56:47;6.57;;;1.83;;
37905;SDS011;23739;51.448;6.674;2022-09-17T07:59:14;9.15;;;1.75;;
37905;SDS011;23739;51.448;6.674;2022-09-17T08:01:40;10.05;;;2.47;;
37905;SDS011;23739;51.448;6.674;2022-09-17T08:04:06;6.90;;;1.00;;
37905;SDS011;23739;51.448;6.674;2022-09-17T08:06:35;13.93;;;1.65;;
37905;SDS011;23739;51.448;6.674;2022-09-17T08:09:02;4.60;;;1.10;;
37905;SDS011;23739;51.448;6.674;2022-09-17T08:11:29;5.93;;;0.88;;
37905;SDS011;23739;51.448;6.674;2022-09-17T08:13:55;8.75;;;1.58;;
37905;SDS011;23739;51.448;6.674;2022-09-17T08:16:22;4.47;;;0.90;;
37905;SDS011;23739;51.448;6.674;2022-09-17T08:18:52;4.38;;;1.60;;
37905;SDS011;23739;51.448;6.674;2022-09-17T08:21:19;7.38;;;1.15;;
37905;SDS011;23739;51.448;6.674;2022-09-17T08:23:45;2.58;;;0.70;;
37905;SDS011;23739;51.448;6.674;2022-09-17T08:26:14;4.70;;;1.13;;
37905;SDS011;23739;51.448;6.674;2022-09-17T08:28:45;4.05;;;0.85;;
37905;SDS011;23739;51.448;6.674;2022-09-17T08:31:11;5.40;;;0.82;;
37905;SDS011;23739;51.448;6.674;2022-09-17T08:33:38;7.05;;;1.50;;
37905;SDS011;23739;51.448;6.674;2022-09-17T08:36:06;4.57;;;0.80;;
37905;SDS011;23739;51.448;6.674;2022-09-17T08:38:33;6.10;;;1.02;;
37905;SDS011;23739;51.448;6.674;2022-09-17T08:46:21;5.57;;;0.98;;
37905;SDS011;23739;51.448;6.674;2022-09-17T08:54:10;7.45;;;1.00;;
37905;SDS011;23739;51.448;6.674;2022-09-17T08:56:38;7.57;;;1.02;;
37905;SDS011;23739;51.448;6.674;2022-09-17T09:01:41;3.53;;;0.80;;
37905;SDS011;23739;51.448;6.674;2022-09-17T09:06:48;5.65;;;1.10;;
37905;SDS011;23739;51.448;6.674;2022-09-17T09:09:17;4.90;;;1.48;;
37905;SDS011;23739;51.448;6.674;2022-09-17T09:11:45;5.10;;;1.00;;
37905;SDS011;23739;51.448;6.674;2022-09-17T09:14:23;6.65;;;1.38;;
37905;SDS011;23739;51.448;6.674;2022-09-17T09:16:52;3.83;;;0.77;;
37905;SDS011;23739;51.448;6.674;2022-09-17T09:24:17;8.25;;;1.23;;
37905;SDS011;23739;51.448;6.674;2022-09-17T09:26:46;7.78;;;0.82;;
37905;SDS011;23739;51.448;6.674;2022-09-17T09:32:04;9.32;;;1.13;;
37905;SDS011;23739;51.448;6.674;2022-09-17T09:34:33;3.17;;;0.98;;
37905;SDS011;23739;51.448;6.674;2022-09-17T09:37:11;5.18;;;0.90;;
37905;SDS011;23739;51.448;6.674;2022-09-17T09:39:39;1.95;;;0.70;;
37905;SDS011;23739;51.448;6.674;2022-09-17T09:44:41;15.05;;;1.40;;
37905;SDS011;23739;51.448;6.674;2022-09-17T09:54:51;3.17;;;0.70;;
37905;SDS011;23739;51.448;6.674;2022-09-17T09:57:29;5.47;;;1.30;;
37905;SDS011;23739;51.448;6.674;2022-09-17T10:02:41;3.33;;;0.80;;
37905;SDS011;23739;51.448;6.674;2022-09-17T10:05:07;6.90;;;1.40;;
37905;SDS011;23739;51.448;6.674;2022-09-17T10:07:41;3.22;;;0.80;;
37905;SDS011;23739;51.448;6.674;2022-09-17T10:10:08;6.20;;;0.80;;
37905;SDS011;23739;51.448;6.674;2022-09-17T10:12:35;4.20;;;0.85;;
37905;SDS011;23739;51.448;6.674;2022-09-17T10:15:23;3.85;;;0.75;;
37905;SDS011;23739;51.448;6.674;2022-09-17T10:17:47;3.83;;;0.68;;
37905;SDS011;23739;51.448;6.674;2022-09-17T10:20:14;5.30;;;0.75;;
37905;SDS011;23739;51.448;6.674;2022-09-17T10:22:42;6.32;;;0.60;;
37905;SDS011;23739;51.448;6.674;2022-09-17T10:27:47;7.05;;;1.23;;
37905;SDS011;23739;51.448;6.674;2022-09-17T10:30:14;4.57;;;0.80;;
37905;SDS011;23739;51.448;6.674;2022-09-17T10:32:41;3.78;;;0.65;;
37905;SDS011;23739;51.448;6.674;2022-09-17T10:42:50;6.00;;;0.90;;
37905;SDS011;23739;51.448;6.674;2022-09-17T10:45:32;3.00;;;0.98;;
37905;SDS011;23739;51.448;6.674;2022-09-17T10:47:58;4.00;;;0.70;;
37905;SDS011;23739;51.448;6.674;2022-09-17T10:50:31;2.78;;;0.90;;
37905;SDS011;23739;51.448;6.674;2022-09-17T10:53:03;6.40;;;0.60;;
37905;SDS011;23739;51.448;6.674;2022-09-17T10:55:30;5.18;;;1.25;;
37905;SDS011;23739;51.448;6.674;2022-09-17T10:58:02;6.38;;;2.55;;
37905;SDS011;23739;51.448;6.674;2022-09-17T11:00:37;4.60;;;0.70;;
37905;SDS011;23739;51.448;6.674;2022-09-17T11:11:03;4.35;;;0.70;;
37905;SDS011;23739;51.448;6.674;2022-09-17T11:13:36;1.98;;;0.77;;
37905;SDS011;23739;51.448;6.674;2022-09-17T11:16:10;2.65;;;0.50;;
37905;SDS011;23739;51.448;6.674;2022-09-17T11:18:44;3.30;;;0.50;;
37905;SDS011;23739;51.448;6.674;2022-09-17T11:23:53;3.20;;;0.68;;
37905;SDS011;23739;51.448;6.674;2022-09-17T11:36:21;0.43;;;0.20;;
37905;SDS011;23739;51.448;6.674;2022-09-17T11:38:48;5.00;;;0.55;;
37905;SDS011;23739;51.448;6.674;2022-09-17T11:41:15;5.38;;;0.50;;
37905;SDS011;23739;51.448;6.674;2022-09-17T11:43:59;4.63;;;0.65;;
37905;SDS011;23739;51.448;6.674;2022-09-17T11:46:33;2.15;;;0.68;;
37905;SDS011;23739;51.448;6.674;2022-09-17T11:49:11;1.42;;;0.80;;
37905;SDS011;23739;51.448;6.674;2022-09-17T11:51:48;3.60;;;0.82;;
37905;SDS011;23739;51.448;6.674;2022-09-17T11:56:49;1.55;;;0.47;;
37905;SDS011;23739;51.448;6.674;2022-09-17T12:07:43;1.67;;;0.50;;
37905;SDS011;23739;51.448;6.674;2022-09-17T12:09:43;2.13;;;0.38;;
37905;SDS011;23739;51.448;6.674;2022-09-17T12:12:13;1.90;;;0.40;;
37905;SDS011;23739;51.448;6.674;2022-09-17T12:14:45;1.23;;;0.40;;
37905;SDS011;23739;51.448;6.674;2022-09-17T12:17:16;4.07;;;1.30;;
37905;SDS011;23739;51.448;6.674;2022-09-17T12:19:56;1.73;;;0.50;;
37905;SDS011;23739;51.448;6.674;2022-09-17T12:22:28;3.05;;;1.20;;
37905;SDS011;23739;51.448;6.674;2022-09-17T12:24:55;2.38;;;0.60;;
37905;SDS011;23739;51.448;6.674;2022-09-17T12:30:11;2.35;;;0.60;;
37905;SDS011;23739;51.448;6.674;2022-09-17T12:42:50;0.75;;;0.50;;
37905;SDS011;23739;51.448;6.674;2022-09-17T13:00:50;2.47;;;0.57;;
37905;SDS011;23739;51.448;6.674;2022-09-17T13:16:05;3.10;;;0.55;;
37905;SDS011;23739;51.448;6.674;2022-09-17T13:18:35;1.48;;;0.50;;
37905;SDS011;23739;51.448;6.674;2022-09-17T13:21:11;6.63;;;0.50;;
37905;SDS011;23739;51.448;6.674;2022-09-17T13:26:04;4.63;;;1.52;;
37905;SDS011;23739;51.448;6.674;2022-09-17T13:29:04;5.60;;;1.20;;
37905;SDS011;23739;51.448;6.674;2022-09-17T13:39:30;11.05;;;0.77;;
37905;SDS011;23739;51.448;6.674;2022-09-17T13:41:58;6.97;;;0.82;;
37905;SDS011;23739;51.448;6.674;2022-09-17T13:44:28;2.58;;;1.02;;
37905;SDS011;23739;51.448;6.674;2022-09-17T13:47:01;4.50;;;0.70;;
37905;SDS011;23739;51.448;6.674;2022-09-17T13:49:33;2.35;;;0.80;;
37905;SDS011;23739;51.448;6.674;2022-09-17T13:51:59;5.75;;;1.00;;
37905;SDS011;23739;51.448;6.674;2022-09-17T13:54:34;4.40;;;0.93;;
37905;SDS011;23739;51.448;6.674;2022-09-17T13:57:08;3.00;;;0.93;;
37905;SDS011;23739;51.448;6.674;2022-09-17T13:59:35;3.88;;;0.65;;
37905;SDS011;23739;51.448;6.674;2022-09-17T14:09:54;7.10;;;0.82;;
37905;SDS011;23739;51.448;6.674;2022-09-17T14:17:57;4.78;;;1.08;;
37905;SDS011;23739;51.448;6.674;2022-09-17T14:20:24;4.55;;;1.08;;
37905;SDS011;23739;51.448;6.674;2022-09-17T14:23:00;8.73;;;0.90;;
37905;SDS011;23739;51.448;6.674;2022-09-17T14:25:41;3.60;;;1.40;;
37905;SDS011;23739;51.448;6.674;2022-09-17T14:28:33;4.47;;;0.90;;
37905;SDS011;23739;51.448;6.674;2022-09-17T14:31:00;5.53;;;0.85;;
37905;SDS011;23739;51.448;6.674;2022-09-17T14:33:28;3.50;;;0.80;;
37905;SDS011;23739;51.448;6.674;2022-09-17T14:36:09;8.18;;;1.50;;
37905;SDS011;23739;51.448;6.674;2022-09-17T14:38:40;7.75;;;1.42;;
37905;SDS011;23739;51.448;6.674;2022-09-17T14:46:28;2.92;;;0.82;;
37905;SDS011;23739;51.448;6.674;2022-09-17T14:49:11;2.75;;;1.08;;
37905;SDS011;23739;51.448;6.674;2022-09-17T14:51:39;2.45;;;0.80;;
37905;SDS011;23739;51.448;6.674;2022-09-17T14:54:24;4.32;;;1.30;;
37905;SDS011;23739;51.448;6.674;2022-09-17T14:56:55;3.58;;;0.77;;
37905;SDS011;23739;51.448;6.674;2022-09-17T15:01:48;1.83;;;0.82;;
37905;SDS011;23739;51.448;6.674;2022-09-17T15:06:41;4.53;;;1.80;;
37905;SDS011;23739;51.448;6.674;2022-09-17T15:09:17;4.60;;;0.90;;
37905;SDS011;23739;51.448;6.674;2022-09-17T15:11:44;3.97;;;1.17;;
37905;SDS011;23739;51.448;6.674;2022-09-17T15:14:21;3.55;;;0.90;;
37905;SDS011;23739;51.448;6.674;2022-09-17T15:16:49;3.30;;;0.80;;
37905;SDS011;23739;51.448;6.674;2022-09-17T15:19:26;3.63;;;0.95;;
37905;SDS011;23739;51.448;6.674;2022-09-17T15:21:57;5.50;;;0.90;;
37905;SDS011;23739;51.448;6.674;2022-09-17T15:26:52;3.60;;;0.50;;
37905;SDS011;23739;51.448;6.674;2022-09-17T15:29:19;0.95;;;0.43;;
37905;SDS011;23739;51.448;6.674;2022-09-17T15:31:46;3.15;;;0.60;;
37905;SDS011;23739;51.448;6.674;2022-09-17T15:34:12;2.42;;;1.05;;
37905;SDS011;23739;51.448;6.674;2022-09-17T15:36:39;1.42;;;0.60;;
37905;SDS011;23739;51.448;6.674;2022-09-17T15:42:17;5.97;;;0.85;;
37905;SDS011;23739;51.448;6.674;2022-09-17T15:44:44;6.38;;;0.75;;
37905;SDS011;23739;51.448;6.674;2022-09-17T15:55:35;3.42;;;0.77;;
37905;SDS011;23739;51.448;6.674;2022-09-17T15:58:25;4.18;;;0.98;;
37905;SDS011;23739;51.448;6.674;2022-09-17T16:03:56;2.88;;;1.02;;
37905;SDS011;23739;51.448;6.674;2022-09-17T16:08:50;4.07;;;0.80;;
37905;SDS011;23739;51.448;6.674;2022-09-17T16:11:16;1.52;;;0.43;;
37905;SDS011;23739;51.448;6.674;2022-09-17T16:13:46;2.10;;;0.60;;
37905;SDS011;23739;51.448;6.674;2022-09-17T16:16:16;5.10;;;0.60;;
37905;SDS011;23739;51.448;6.674;2022-09-17T16:18:43;2.47;;;0.50;;
37905;SDS011;23739;51.448;6.674;2022-09-17T16:21:09;1.67;;;0.57;;
37905;SDS011;23739;51.448;6.674;2022-09-17T16:23:35;2.85;;;0.45;;
37905;SDS011;23739;51.448;6.674;2022-09-17T16:26:02;1.77;;;0.40;;
37905;SDS011;23739;51.448;6.674;2022-09-17T16:28:29;2.17;;;0.93;;
37905;SDS011;23739;51.448;6.674;2022-09-17T16:30:55;3.85;;;0.70;;
37905;SDS011;23739;51.448;6.674;2022-09-17T16:33:21;3.50;;;0.60;;
37905;SDS011;23739;51.448;6.674;2022-09-17T16:35:48;6.57;;;0.93;;
37905;SDS011;23739;51.448;6.674;2022-09-17T16:38:15;6.45;;;1.10;;
37905;SDS011;23739;51.448;6.674;2022-09-17T16:40:42;4.35;;;0.90;;
37905;SDS011;23739;51.448;6.674;2022-09-17T16:43:09;2.20;;;0.90;;
37905;SDS011;23739;51.448;6.674;2022-09-17T16:45:35;3.85;;;0.60;;
37905;SDS011;23739;51.448;6.674;2022-09-17T16:48:02;5.72;;;1.02;;
37905;SDS011;23739;51.448;6.674;2022-09-17T16:50:28;5.60;;;1.45;;
37905;SDS011;23739;51.448;6.674;2022-09-17T16:52:54;8.55;;;1.00;;
37905;SDS011;23739;51.448;6.674;2022-09-17T16:55:21;2.92;;;0.90;;
37905;SDS011;23739;51.448;6.674;2022-09-17T16:57:47;3.40;;;0.90;;
37905;SDS011;23739;51.448;6.674;2022-09-17T17:00:15;6.38;;;0.90;;
37905;SDS011;23739;51.448;6.674;2022-09-17T17:02:43;4.32;;;1.27;;
37905;SDS011;23739;51.448;6.674;2022-09-17T17:05:10;5.55;;;1.23;;
37905;SDS011;23739;51.448;6.674;2022-09-17T17:07:36;5.82;;;1.77;;
37905;SDS011;23739;51.448;6.674;2022-09-17T17:10:03;6.70;;;2.30;;
37905;SDS011;23739;51.448;6.674;2022-09-17T17:12:29;6.70;;;1.50;;
37905;SDS011;23739;51.448;6.674;2022-09-17T17:14:56;13.57;;;1.50;;
37905;SDS011;23739;51.448;6.674;2022-09-17T17:17:22;6.47;;;1.23;;
37905;SDS011;23739;51.448;6.674;2022-09-17T17:19:48;4.32;;;1.60;;
37905;SDS011;23739;51.448;6.674;2022-09-17T17:22:14;9.40;;;1.00;;
37905;SDS011;23739;51.448;6.674;2022-09-17T17:24:41;4.53;;;1.08;;
37905;SDS011;23739;51.448;6.674;2022-09-17T17:27:07;7.25;;;2.47;;
37905;SDS011;23739;51.448;6.674;2022-09-17T17:29:34;4.28;;;1.70;;
37905;SDS011;23739;51.448;6.674;2022-09-17T17:32:03;4.07;;;1.02;;
37905;SDS011;23739;51.448;6.674;2022-09-17T17:34:29;11.10;;;1.92;;
37905;SDS011;23739;51.448;6.674;2022-09-17T17:36:56;7.07;;;1.58;;
37905;SDS011;23739;51.448;6.674;2022-09-17T17:39:23;5.97;;;1.33;;
37905;SDS011;23739;51.448;6.674;2022-09-17T17:41:49;11.45;;;1.58;;
37905;SDS011;23739;51.448;6.674;2022-09-17T17:44:18;7.75;;;2.70;;
37905;SDS011;23739;51.448;6.674;2022-09-17T17:46:44;5.80;;;0.90;;
37905;SDS011;23739;51.448;6.674;2022-09-17T17:49:10;14.55;;;1.30;;
37905;SDS011;23739;51.448;6.674;2022-09-17T17:51:36;7.80;;;1.85;;
37905;SDS011;23739;51.448;6.674;2022-09-17T17:54:03;9.35;;;1.63;;
37905;SDS011;23739;51.448;6.674;2022-09-17T17:56:29;10.07;;;2.75;;
37905;SDS011;23739;51.448;6.674;2022-09-17T17:58:55;7.13;;;1.00;;
37905;SDS011;23739;51.448;6.674;2022-09-17T18:01:24;6.78;;;1.50;;
37905;SDS011;23739;51.448;6.674;2022-09-17T18:03:54;4.88;;;1.55;;
37905;SDS011;23739;51.448;6.674;2022-09-17T18:06:20;13.77;;;1.90;;
37905;SDS011;23739;51.448;6.674;2022-09-17T18:08:46;5.70;;;1.45;;
37905;SDS011;23739;51.448;6.674;2022-09-17T18:11:13;6.05;;;0.95;;
37905;SDS011;23739;51.448;6.674;2022-09-17T18:13:39;6.15;;;1.80;;
37905;SDS011;23739;51.448;6.674;2022-09-17T18:16:06;6.65;;;1.55;;
37905;SDS011;23739;51.448;6.674;2022-09-17T18:18:40;13.90;;;1.63;;
37905;SDS011;23739;51.448;6.674;2022-09-17T18:21:08;7.75;;;1.88;;
37905;SDS011;23739;51.448;6.674;2022-09-17T18:23:35;6.93;;;1.08;;
37905;SDS011;23739;51.448;6.674;2022-09-17T18:26:03;3.47;;;1.27;;
37905;SDS011;23739;51.448;6.674;2022-09-17T18:28:29;8.15;;;1.38;;